You are listening to:
CZUL ACC (Noranda Sector) - Timmins, Ontario, Canada

CYTS 220300Z 27003KT 15SM FEW019 BKN040 04/04 A2972 RMK SC2SC5 SLP075

If stream doesn't start automatically press the play button
If stream stops then reload player then press play